KMDD/MDD METAR and TAF weather

Enter ICAO airport designator
Station Type Date Time Source
KMDD METAR 2022/12/04 11:15 UTC NOAA

KMDD 041115Z AUTO 32004KT 10SM SCT120 06/M04 A3029 RMK AO2 T00641036


Station Type Date Time Source
KMDD Decoded METAR 2022/12/04 11:15 UTC NOAA

Midland, Midland Airpark, TX, United States (KMDD) 32-02-11N 102-06-03W
Dec 04, 2022 - 06:15 AM EST / 2022.12.04 1115 UTC
Wind: from the NW (320 degrees) at 5 MPH (4 KT):0
Visibility: 10 mile(s):0
Sky conditions: partly cloudy
Temperature: 43.5 F (6.4 C)
Dew Point: 25.5 F (-3.6 C)
Relative Humidity: 48%
Pressure (altimeter): 30.29 in. Hg (1025 hPa)
ob: KMDD 041115Z AUTO 32004KT 10SM SCT120 06/M04 A3029 RMK AO2 T00641036
cycle: 11

Station Type Date Time Source
KMDD TAF UTC NOAA

Error!

Example: see airport list